sensor_id;sensor_type;location;lat;lon;timestamp;P1;durP1;ratioP1;P2;durP2;ratioP2
18726;SDS011;9492;51.888;5.186;2023-03-01T00:02:20;6.60;;;5.90;;
18726;SDS011;9492;51.888;5.186;2023-03-01T00:04:46;8.13;;;6.50;;
18726;SDS011;9492;51.888;5.186;2023-03-01T00:07:12;7.23;;;6.53;;
18726;SDS011;9492;51.888;5.186;2023-03-01T00:09:38;6.80;;;5.87;;
18726;SDS011;9492;51.888;5.186;2023-03-01T00:12:05;7.97;;;6.53;;
18726;SDS011;9492;51.888;5.186;2023-03-01T00:14:31;6.30;;;5.70;;
18726;SDS011;9492;51.888;5.186;2023-03-01T00:16:57;8.80;;;6.63;;
18726;SDS011;9492;51.888;5.186;2023-03-01T00:19:23;7.40;;;6.50;;
18726;SDS011;9492;51.888;5.186;2023-03-01T00:21:49;7.00;;;6.30;;
18726;SDS011;9492;51.888;5.186;2023-03-01T00:24:15;8.20;;;6.73;;
18726;SDS011;9492;51.888;5.186;2023-03-01T00:26:41;9.27;;;6.40;;
18726;SDS011;9492;51.888;5.186;2023-03-01T00:29:07;6.97;;;6.30;;
18726;SDS011;9492;51.888;5.186;2023-03-01T00:31:33;6.53;;;5.90;;
18726;SDS011;9492;51.888;5.186;2023-03-01T00:34:01;7.97;;;6.60;;
18726;SDS011;9492;51.888;5.186;2023-03-01T00:36:28;6.77;;;6.07;;
18726;SDS011;9492;51.888;5.186;2023-03-01T00:38:55;8.60;;;6.70;;
18726;SDS011;9492;51.888;5.186;2023-03-01T00:41:21;8.37;;;6.63;;
18726;SDS011;9492;51.888;5.186;2023-03-01T00:43:47;7.43;;;6.13;;
18726;SDS011;9492;51.888;5.186;2023-03-01T00:46:15;11.67;;;6.50;;
18726;SDS011;9492;51.888;5.186;2023-03-01T00:48:41;7.57;;;6.83;;
18726;SDS011;9492;51.888;5.186;2023-03-01T00:53:37;7.60;;;6.17;;
18726;SDS011;9492;51.888;5.186;2023-03-01T00:56:03;7.37;;;6.20;;
18726;SDS011;9492;51.888;5.186;2023-03-01T00:58:30;7.33;;;5.87;;
18726;SDS011;9492;51.888;5.186;2023-03-01T01:00:56;7.67;;;5.70;;
18726;SDS011;9492;51.888;5.186;2023-03-01T01:03:22;6.47;;;5.87;;
18726;SDS011;9492;51.888;5.186;2023-03-01T01:05:49;7.47;;;5.70;;
18726;SDS011;9492;51.888;5.186;2023-03-01T01:08:15;6.00;;;5.37;;
18726;SDS011;9492;51.888;5.186;2023-03-01T01:10:43;7.83;;;5.53;;
18726;SDS011;9492;51.888;5.186;2023-03-01T01:13:09;6.77;;;5.87;;
18726;SDS011;9492;51.888;5.186;2023-03-01T01:15:35;6.60;;;5.87;;
18726;SDS011;9492;51.888;5.186;2023-03-01T01:18:01;6.23;;;5.60;;
18726;SDS011;9492;51.888;5.186;2023-03-01T01:20:27;6.37;;;5.77;;
18726;SDS011;9492;51.888;5.186;2023-03-01T01:22:53;7.17;;;6.00;;
18726;SDS011;9492;51.888;5.186;2023-03-01T01:25:20;7.17;;;6.17;;
18726;SDS011;9492;51.888;5.186;2023-03-01T01:27:46;6.30;;;5.67;;
18726;SDS011;9492;51.888;5.186;2023-03-01T01:30:12;6.30;;;5.70;;
18726;SDS011;9492;51.888;5.186;2023-03-01T01:32:38;7.13;;;6.03;;
18726;SDS011;9492;51.888;5.186;2023-03-01T01:35:04;7.57;;;5.63;;
18726;SDS011;9492;51.888;5.186;2023-03-01T01:37:30;6.50;;;5.53;;
18726;SDS011;9492;51.888;5.186;2023-03-01T01:39:59;6.30;;;5.57;;
18726;SDS011;9492;51.888;5.186;2023-03-01T01:42:25;6.57;;;5.90;;
18726;SDS011;9492;51.888;5.186;2023-03-01T01:47:36;7.80;;;5.83;;
18726;SDS011;9492;51.888;5.186;2023-03-01T01:50:02;6.80;;;5.87;;
18726;SDS011;9492;51.888;5.186;2023-03-01T01:52:34;7.30;;;6.60;;
18726;SDS011;9492;51.888;5.186;2023-03-01T01:55:11;7.37;;;6.00;;
18726;SDS011;9492;51.888;5.186;2023-03-01T01:57:44;6.40;;;5.80;;
18726;SDS011;9492;51.888;5.186;2023-03-01T02:00:15;11.03;;;6.57;;
18726;SDS011;9492;51.888;5.186;2023-03-01T02:02:44;9.37;;;6.80;;
18726;SDS011;9492;51.888;5.186;2023-03-01T02:05:14;8.00;;;6.43;;
18726;SDS011;9492;51.888;5.186;2023-03-01T02:07:41;7.10;;;6.37;;
18726;SDS011;9492;51.888;5.186;2023-03-01T02:10:07;9.13;;;6.47;;
18726;SDS011;9492;51.888;5.186;2023-03-01T02:12:34;9.43;;;7.03;;
18726;SDS011;9492;51.888;5.186;2023-03-01T02:15:00;9.27;;;6.90;;
18726;SDS011;9492;51.888;5.186;2023-03-01T02:17:26;9.50;;;6.63;;
18726;SDS011;9492;51.888;5.186;2023-03-01T02:19:57;8.03;;;6.27;;
18726;SDS011;9492;51.888;5.186;2023-03-01T02:22:28;10.10;;;7.37;;
18726;SDS011;9492;51.888;5.186;2023-03-01T02:27:22;7.67;;;6.80;;
18726;SDS011;9492;51.888;5.186;2023-03-01T02:29:49;10.33;;;6.97;;
18726;SDS011;9492;51.888;5.186;2023-03-01T02:32:15;7.83;;;6.77;;
18726;SDS011;9492;51.888;5.186;2023-03-01T02:34:50;9.53;;;7.13;;
18726;SDS011;9492;51.888;5.186;2023-03-01T02:37:16;8.83;;;7.33;;
18726;SDS011;9492;51.888;5.186;2023-03-01T02:39:49;10.07;;;7.40;;
18726;SDS011;9492;51.888;5.186;2023-03-01T02:42:19;7.73;;;6.60;;
18726;SDS011;9492;51.888;5.186;2023-03-01T02:44:48;9.00;;;6.83;;
18726;SDS011;9492;51.888;5.186;2023-03-01T02:47:17;9.73;;;8.20;;
18726;SDS011;9492;51.888;5.186;2023-03-01T02:49:43;7.77;;;7.00;;
18726;SDS011;9492;51.888;5.186;2023-03-01T02:55:02;9.27;;;7.93;;
18726;SDS011;9492;51.888;5.186;2023-03-01T02:57:30;8.10;;;7.27;;
18726;SDS011;9492;51.888;5.186;2023-03-01T02:59:57;10.20;;;6.93;;
18726;SDS011;9492;51.888;5.186;2023-03-01T03:02:27;10.13;;;7.27;;
18726;SDS011;9492;51.888;5.186;2023-03-01T03:05:06;8.27;;;7.17;;
18726;SDS011;9492;51.888;5.186;2023-03-01T03:07:34;8.00;;;7.20;;
18726;SDS011;9492;51.888;5.186;2023-03-01T03:10:04;9.47;;;7.73;;
18726;SDS011;9492;51.888;5.186;2023-03-01T03:12:30;8.27;;;7.43;;
18726;SDS011;9492;51.888;5.186;2023-03-01T03:14:56;8.87;;;7.63;;
18726;SDS011;9492;51.888;5.186;2023-03-01T03:17:22;9.37;;;7.30;;
18726;SDS011;9492;51.888;5.186;2023-03-01T03:19:48;7.83;;;7.03;;
18726;SDS011;9492;51.888;5.186;2023-03-01T03:22:14;7.73;;;7.00;;
18726;SDS011;9492;51.888;5.186;2023-03-01T03:24:43;8.37;;;7.30;;
18726;SDS011;9492;51.888;5.186;2023-03-01T03:27:11;7.70;;;7.00;;
18726;SDS011;9492;51.888;5.186;2023-03-01T03:29:37;9.40;;;7.77;;
18726;SDS011;9492;51.888;5.186;2023-03-01T03:32:03;9.00;;;8.10;;
18726;SDS011;9492;51.888;5.186;2023-03-01T03:34:29;9.30;;;7.37;;
18726;SDS011;9492;51.888;5.186;2023-03-01T03:36:56;7.87;;;7.00;;
18726;SDS011;9492;51.888;5.186;2023-03-01T03:39:25;8.53;;;7.63;;
18726;SDS011;9492;51.888;5.186;2023-03-01T03:41:51;8.33;;;6.87;;
18726;SDS011;9492;51.888;5.186;2023-03-01T03:44:17;9.40;;;6.90;;
18726;SDS011;9492;51.888;5.186;2023-03-01T03:46:46;10.03;;;7.80;;
18726;SDS011;9492;51.888;5.186;2023-03-01T03:49:12;8.87;;;7.93;;
18726;SDS011;9492;51.888;5.186;2023-03-01T03:51:38;10.40;;;7.50;;
18726;SDS011;9492;51.888;5.186;2023-03-01T03:54:04;9.60;;;7.33;;
18726;SDS011;9492;51.888;5.186;2023-03-01T03:56:30;8.50;;;7.20;;
18726;SDS011;9492;51.888;5.186;2023-03-01T03:58:56;8.47;;;6.77;;
18726;SDS011;9492;51.888;5.186;2023-03-01T04:01:22;7.80;;;6.57;;
18726;SDS011;9492;51.888;5.186;2023-03-01T04:03:48;8.90;;;7.50;;
18726;SDS011;9492;51.888;5.186;2023-03-01T04:06:19;12.10;;;7.90;;
18726;SDS011;9492;51.888;5.186;2023-03-01T04:08:49;9.63;;;8.20;;
18726;SDS011;9492;51.888;5.186;2023-03-01T04:11:15;10.20;;;7.87;;
18726;SDS011;9492;51.888;5.186;2023-03-01T04:13:51;9.50;;;7.90;;
18726;SDS011;9492;51.888;5.186;2023-03-01T04:16:18;9.27;;;7.43;;
18726;SDS011;9492;51.888;5.186;2023-03-01T04:18:47;10.80;;;8.27;;
18726;SDS011;9492;51.888;5.186;2023-03-01T04:21:13;11.40;;;8.63;;
18726;SDS011;9492;51.888;5.186;2023-03-01T04:23:45;9.13;;;8.13;;
18726;SDS011;9492;51.888;5.186;2023-03-01T04:26:17;9.13;;;8.17;;
18726;SDS011;9492;51.888;5.186;2023-03-01T04:28:43;15.23;;;8.87;;
18726;SDS011;9492;51.888;5.186;2023-03-01T04:31:14;9.80;;;8.80;;
18726;SDS011;9492;51.888;5.186;2023-03-01T04:33:52;8.90;;;8.00;;
18726;SDS011;9492;51.888;5.186;2023-03-01T04:36:20;9.77;;;8.77;;
18726;SDS011;9492;51.888;5.186;2023-03-01T04:38:46;9.67;;;7.40;;
18726;SDS011;9492;51.888;5.186;2023-03-01T04:41:12;10.30;;;8.27;;
18726;SDS011;9492;51.888;5.186;2023-03-01T04:43:42;9.23;;;8.10;;
18726;SDS011;9492;51.888;5.186;2023-03-01T04:46:09;10.00;;;8.23;;
18726;SDS011;9492;51.888;5.186;2023-03-01T04:48:36;10.43;;;7.60;;
18726;SDS011;9492;51.888;5.186;2023-03-01T04:51:03;10.73;;;8.00;;
18726;SDS011;9492;51.888;5.186;2023-03-01T04:53:29;11.37;;;8.63;;
18726;SDS011;9492;51.888;5.186;2023-03-01T04:55:55;9.93;;;7.97;;
18726;SDS011;9492;51.888;5.186;2023-03-01T04:58:26;9.30;;;8.40;;
18726;SDS011;9492;51.888;5.186;2023-03-01T05:00:52;10.47;;;8.33;;
18726;SDS011;9492;51.888;5.186;2023-03-01T05:03:18;8.73;;;7.83;;
18726;SDS011;9492;51.888;5.186;2023-03-01T05:05:45;10.73;;;7.73;;
18726;SDS011;9492;51.888;5.186;2023-03-01T05:08:12;10.83;;;8.43;;
18726;SDS011;9492;51.888;5.186;2023-03-01T05:10:43;9.80;;;8.53;;
18726;SDS011;9492;51.888;5.186;2023-03-01T05:13:13;8.93;;;7.57;;
18726;SDS011;9492;51.888;5.186;2023-03-01T05:15:49;10.07;;;7.20;;
18726;SDS011;9492;51.888;5.186;2023-03-01T05:18:19;9.23;;;7.30;;
18726;SDS011;9492;51.888;5.186;2023-03-01T05:20:45;10.70;;;8.27;;
18726;SDS011;9492;51.888;5.186;2023-03-01T05:23:12;9.77;;;7.50;;
18726;SDS011;9492;51.888;5.186;2023-03-01T05:25:38;10.17;;;8.43;;
18726;SDS011;9492;51.888;5.186;2023-03-01T05:28:06;9.20;;;7.37;;
18726;SDS011;9492;51.888;5.186;2023-03-01T05:30:32;8.53;;;7.70;;
18726;SDS011;9492;51.888;5.186;2023-03-01T05:32:58;10.90;;;8.27;;
18726;SDS011;9492;51.888;5.186;2023-03-01T05:35:25;9.80;;;7.97;;
18726;SDS011;9492;51.888;5.186;2023-03-01T05:37:51;8.10;;;7.23;;
18726;SDS011;9492;51.888;5.186;2023-03-01T05:40:18;8.43;;;7.03;;
18726;SDS011;9492;51.888;5.186;2023-03-01T05:42:45;9.47;;;7.43;;
18726;SDS011;9492;51.888;5.186;2023-03-01T05:45:12;9.70;;;6.90;;
18726;SDS011;9492;51.888;5.186;2023-03-01T05:47:39;7.70;;;6.50;;
18726;SDS011;9492;51.888;5.186;2023-03-01T05:50:09;8.67;;;6.87;;
18726;SDS011;9492;51.888;5.186;2023-03-01T05:52:35;8.10;;;6.60;;
18726;SDS011;9492;51.888;5.186;2023-03-01T05:55:01;9.17;;;6.83;;
18726;SDS011;9492;51.888;5.186;2023-03-01T05:57:30;7.40;;;6.57;;
18726;SDS011;9492;51.888;5.186;2023-03-01T05:59:56;9.47;;;6.97;;
18726;SDS011;9492;51.888;5.186;2023-03-01T06:02:22;8.47;;;7.17;;
18726;SDS011;9492;51.888;5.186;2023-03-01T06:04:48;8.60;;;7.70;;
18726;SDS011;9492;51.888;5.186;2023-03-01T06:07:14;10.10;;;7.90;;
18726;SDS011;9492;51.888;5.186;2023-03-01T06:09:40;8.70;;;7.80;;
18726;SDS011;9492;51.888;5.186;2023-03-01T06:12:06;10.00;;;7.27;;
18726;SDS011;9492;51.888;5.186;2023-03-01T06:14:32;10.33;;;7.57;;
18726;SDS011;9492;51.888;5.186;2023-03-01T06:16:58;9.73;;;7.30;;
18726;SDS011;9492;51.888;5.186;2023-03-01T06:19:24;8.73;;;7.83;;
18726;SDS011;9492;51.888;5.186;2023-03-01T06:21:50;9.90;;;7.47;;
18726;SDS011;9492;51.888;5.186;2023-03-01T06:24:16;9.47;;;8.07;;
18726;SDS011;9492;51.888;5.186;2023-03-01T06:26:42;8.30;;;6.90;;
18726;SDS011;9492;51.888;5.186;2023-03-01T06:29:08;7.70;;;6.90;;
18726;SDS011;9492;51.888;5.186;2023-03-01T06:31:34;10.27;;;7.67;;
18726;SDS011;9492;51.888;5.186;2023-03-01T06:34:00;9.10;;;6.80;;
18726;SDS011;9492;51.888;5.186;2023-03-01T06:36:26;9.07;;;6.80;;
18726;SDS011;9492;51.888;5.186;2023-03-01T06:38:52;8.43;;;7.20;;
18726;SDS011;9492;51.888;5.186;2023-03-01T06:41:18;7.77;;;6.00;;
18726;SDS011;9492;51.888;5.186;2023-03-01T06:43:44;9.20;;;6.87;;
18726;SDS011;9492;51.888;5.186;2023-03-01T06:46:12;8.17;;;7.37;;
18726;SDS011;9492;51.888;5.186;2023-03-01T06:48:38;9.77;;;7.10;;
18726;SDS011;9492;51.888;5.186;2023-03-01T06:51:05;7.73;;;6.50;;
18726;SDS011;9492;51.888;5.186;2023-03-01T06:53:31;8.50;;;7.23;;
18726;SDS011;9492;51.888;5.186;2023-03-01T06:55:58;9.20;;;7.17;;
18726;SDS011;9492;51.888;5.186;2023-03-01T06:58:25;7.70;;;6.43;;
18726;SDS011;9492;51.888;5.186;2023-03-01T07:00:51;8.80;;;6.97;;
18726;SDS011;9492;51.888;5.186;2023-03-01T07:03:17;8.47;;;6.83;;
18726;SDS011;9492;51.888;5.186;2023-03-01T07:05:43;7.43;;;6.10;;
18726;SDS011;9492;51.888;5.186;2023-03-01T07:08:09;6.93;;;6.23;;
18726;SDS011;9492;51.888;5.186;2023-03-01T07:10:35;7.83;;;6.97;;
18726;SDS011;9492;51.888;5.186;2023-03-01T07:13:02;8.37;;;6.30;;
18726;SDS011;9492;51.888;5.186;2023-03-01T07:15:30;7.47;;;5.93;;
18726;SDS011;9492;51.888;5.186;2023-03-01T07:17:58;6.70;;;5.70;;
18726;SDS011;9492;51.888;5.186;2023-03-01T07:20:28;8.17;;;6.53;;
18726;SDS011;9492;51.888;5.186;2023-03-01T07:22:57;7.03;;;6.33;;
18726;SDS011;9492;51.888;5.186;2023-03-01T07:25:23;7.17;;;6.23;;
18726;SDS011;9492;51.888;5.186;2023-03-01T07:30:19;9.73;;;6.30;;
18726;SDS011;9492;51.888;5.186;2023-03-01T07:32:46;8.47;;;6.17;;
18726;SDS011;9492;51.888;5.186;2023-03-01T07:35:13;7.60;;;5.90;;
18726;SDS011;9492;51.888;5.186;2023-03-01T07:37:40;7.70;;;6.20;;
18726;SDS011;9492;51.888;5.186;2023-03-01T07:40:06;7.33;;;5.80;;
18726;SDS011;9492;51.888;5.186;2023-03-01T07:42:32;6.23;;;5.23;;
18726;SDS011;9492;51.888;5.186;2023-03-01T07:44:58;7.50;;;5.37;;
18726;SDS011;9492;51.888;5.186;2023-03-01T07:47:24;5.70;;;4.70;;
18726;SDS011;9492;51.888;5.186;2023-03-01T07:49:50;8.30;;;5.00;;
18726;SDS011;9492;51.888;5.186;2023-03-01T07:52:17;6.03;;;4.80;;
18726;SDS011;9492;51.888;5.186;2023-03-01T07:54:43;5.27;;;4.53;;
18726;SDS011;9492;51.888;5.186;2023-03-01T07:57:09;5.60;;;4.87;;
18726;SDS011;9492;51.888;5.186;2023-03-01T07:59:35;5.90;;;4.60;;
18726;SDS011;9492;51.888;5.186;2023-03-01T08:02:05;6.87;;;4.67;;
18726;SDS011;9492;51.888;5.186;2023-03-01T08:04:31;6.47;;;4.63;;
18726;SDS011;9492;51.888;5.186;2023-03-01T08:06:58;5.57;;;4.13;;
18726;SDS011;9492;51.888;5.186;2023-03-01T08:09:24;6.17;;;4.67;;
18726;SDS011;9492;51.888;5.186;2023-03-01T08:11:50;7.03;;;5.23;;
18726;SDS011;9492;51.888;5.186;2023-03-01T08:14:16;5.60;;;4.10;;
18726;SDS011;9492;51.888;5.186;2023-03-01T08:16:42;5.47;;;4.53;;
18726;SDS011;9492;51.888;5.186;2023-03-01T08:19:09;5.33;;;4.50;;
18726;SDS011;9492;51.888;5.186;2023-03-01T08:21:41;5.97;;;4.57;;
18726;SDS011;9492;51.888;5.186;2023-03-01T08:24:08;5.20;;;4.30;;
18726;SDS011;9492;51.888;5.186;2023-03-01T08:26:35;6.57;;;4.90;;
18726;SDS011;9492;51.888;5.186;2023-03-01T08:29:01;5.83;;;4.17;;
18726;SDS011;9492;51.888;5.186;2023-03-01T08:31:38;6.70;;;4.80;;
18726;SDS011;9492;51.888;5.186;2023-03-01T08:34:06;5.07;;;4.57;;
18726;SDS011;9492;51.888;5.186;2023-03-01T08:36:36;5.63;;;4.60;;
18726;SDS011;9492;51.888;5.186;2023-03-01T08:39:05;5.90;;;4.40;;
18726;SDS011;9492;51.888;5.186;2023-03-01T08:41:31;5.77;;;4.70;;
18726;SDS011;9492;51.888;5.186;2023-03-01T08:43:57;5.10;;;4.47;;
18726;SDS011;9492;51.888;5.186;2023-03-01T08:46:27;6.90;;;5.07;;
18726;SDS011;9492;51.888;5.186;2023-03-01T08:48:54;5.63;;;4.47;;
18726;SDS011;9492;51.888;5.186;2023-03-01T08:51:20;5.87;;;4.77;;
18726;SDS011;9492;51.888;5.186;2023-03-01T08:53:47;5.07;;;4.57;;
18726;SDS011;9492;51.888;5.186;2023-03-01T08:56:14;5.33;;;4.70;;
18726;SDS011;9492;51.888;5.186;2023-03-01T08:58:42;5.63;;;5.03;;
18726;SDS011;9492;51.888;5.186;2023-03-01T09:01:09;5.77;;;4.90;;
18726;SDS011;9492;51.888;5.186;2023-03-01T09:03:35;6.60;;;5.13;;
18726;SDS011;9492;51.888;5.186;2023-03-01T09:06:02;5.70;;;4.70;;
18726;SDS011;9492;51.888;5.186;2023-03-01T09:08:30;4.57;;;4.17;;
18726;SDS011;9492;51.888;5.186;2023-03-01T09:10:58;5.97;;;4.63;;
18726;SDS011;9492;51.888;5.186;2023-03-01T09:16:37;5.23;;;4.43;;
18726;SDS011;9492;51.888;5.186;2023-03-01T09:19:04;6.57;;;4.73;;
18726;SDS011;9492;51.888;5.186;2023-03-01T09:21:30;5.40;;;4.20;;
18726;SDS011;9492;51.888;5.186;2023-03-01T09:23:58;6.10;;;4.43;;
18726;SDS011;9492;51.888;5.186;2023-03-01T09:26:27;7.77;;;5.23;;
18726;SDS011;9492;51.888;5.186;2023-03-01T09:28:53;6.57;;;4.90;;
18726;SDS011;9492;51.888;5.186;2023-03-01T09:31:20;6.17;;;4.73;;
18726;SDS011;9492;51.888;5.186;2023-03-01T09:33:47;7.90;;;4.67;;
18726;SDS011;9492;51.888;5.186;2023-03-01T09:36:15;4.97;;;4.23;;
18726;SDS011;9492;51.888;5.186;2023-03-01T09:38:42;6.40;;;4.67;;
18726;SDS011;9492;51.888;5.186;2023-03-01T09:43:46;6.67;;;4.47;;
18726;SDS011;9492;51.888;5.186;2023-03-01T09:46:13;5.07;;;4.07;;
18726;SDS011;9492;51.888;5.186;2023-03-01T09:48:46;6.33;;;4.47;;
18726;SDS011;9492;51.888;5.186;2023-03-01T09:51:17;5.57;;;4.63;;
18726;SDS011;9492;51.888;5.186;2023-03-01T09:53:44;7.57;;;4.93;;
18726;SDS011;9492;51.888;5.186;2023-03-01T10:01:23;7.00;;;4.70;;
18726;SDS011;9492;51.888;5.186;2023-03-01T10:06:29;4.53;;;3.50;;
18726;SDS011;9492;51.888;5.186;2023-03-01T10:09:00;6.47;;;4.10;;
18726;SDS011;9492;51.888;5.186;2023-03-01T10:11:31;6.73;;;3.83;;
18726;SDS011;9492;51.888;5.186;2023-03-01T10:13:59;4.53;;;3.30;;
18726;SDS011;9492;51.888;5.186;2023-03-01T10:19:01;5.50;;;3.70;;
18726;SDS011;9492;51.888;5.186;2023-03-01T10:21:28;3.80;;;3.10;;
18726;SDS011;9492;51.888;5.186;2023-03-01T10:23:57;7.07;;;4.27;;
18726;SDS011;9492;51.888;5.186;2023-03-01T10:26:30;4.77;;;3.50;;
18726;SDS011;9492;51.888;5.186;2023-03-01T10:31:37;4.80;;;3.40;;
18726;SDS011;9492;51.888;5.186;2023-03-01T10:34:11;5.03;;;3.40;;
18726;SDS011;9492;51.888;5.186;2023-03-01T10:36:38;5.73;;;3.70;;
18726;SDS011;9492;51.888;5.186;2023-03-01T10:39:10;4.93;;;3.40;;
18726;SDS011;9492;51.888;5.186;2023-03-01T10:41:37;7.43;;;4.20;;
18726;SDS011;9492;51.888;5.186;2023-03-01T10:44:10;4.57;;;3.67;;
18726;SDS011;9492;51.888;5.186;2023-03-01T10:46:59;5.23;;;4.20;;
18726;SDS011;9492;51.888;5.186;2023-03-01T10:49:26;6.67;;;4.33;;
18726;SDS011;9492;51.888;5.186;2023-03-01T10:51:53;4.97;;;3.33;;
18726;SDS011;9492;51.888;5.186;2023-03-01T10:54:20;6.20;;;3.70;;
18726;SDS011;9492;51.888;5.186;2023-03-01T10:56:47;6.73;;;3.63;;
18726;SDS011;9492;51.888;5.186;2023-03-01T10:59:27;4.27;;;3.60;;
18726;SDS011;9492;51.888;5.186;2023-03-01T11:02:15;5.30;;;3.83;;
18726;SDS011;9492;51.888;5.186;2023-03-01T11:04:39;5.57;;;3.80;;
18726;SDS011;9492;51.888;5.186;2023-03-01T11:07:07;5.37;;;4.10;;
18726;SDS011;9492;51.888;5.186;2023-03-01T11:09:33;6.33;;;4.00;;
18726;SDS011;9492;51.888;5.186;2023-03-01T11:12:03;4.83;;;4.37;;
18726;SDS011;9492;51.888;5.186;2023-03-01T11:14:32;6.07;;;4.20;;
18726;SDS011;9492;51.888;5.186;2023-03-01T11:17:17;5.27;;;4.30;;
18726;SDS011;9492;51.888;5.186;2023-03-01T11:19:59;6.50;;;4.67;;
18726;SDS011;9492;51.888;5.186;2023-03-01T11:22:25;4.87;;;3.70;;
18726;SDS011;9492;51.888;5.186;2023-03-01T11:24:52;6.43;;;4.37;;
18726;SDS011;9492;51.888;5.186;2023-03-01T11:27:21;5.63;;;4.23;;
18726;SDS011;9492;51.888;5.186;2023-03-01T11:30:02;4.13;;;3.50;;
18726;SDS011;9492;51.888;5.186;2023-03-01T11:32:40;6.07;;;4.10;;
18726;SDS011;9492;51.888;5.186;2023-03-01T11:35:16;5.40;;;3.67;;
18726;SDS011;9492;51.888;5.186;2023-03-01T11:45:03;4.70;;;3.63;;
18726;SDS011;9492;51.888;5.186;2023-03-01T11:50:19;4.53;;;3.37;;
18726;SDS011;9492;51.888;5.186;2023-03-01T11:53:44;5.53;;;3.43;;
18726;SDS011;9492;51.888;5.186;2023-03-01T11:55:45;5.17;;;3.40;;
18726;SDS011;9492;51.888;5.186;2023-03-01T11:58:14;5.50;;;3.90;;
18726;SDS011;9492;51.888;5.186;2023-03-01T12:08:48;3.97;;;3.40;;
18726;SDS011;9492;51.888;5.186;2023-03-01T12:32:25;6.10;;;3.80;;
18726;SDS011;9492;51.888;5.186;2023-03-01T12:42:48;6.90;;;3.93;;
18726;SDS011;9492;51.888;5.186;2023-03-01T12:48:02;7.50;;;4.03;;
18726;SDS011;9492;51.888;5.186;2023-03-01T12:50:45;4.60;;;3.60;;
18726;SDS011;9492;51.888;5.186;2023-03-01T12:53:17;6.07;;;3.97;;
18726;SDS011;9492;51.888;5.186;2023-03-01T12:55:45;4.10;;;3.53;;
18726;SDS011;9492;51.888;5.186;2023-03-01T13:06:07;5.13;;;4.27;;
18726;SDS011;9492;51.888;5.186;2023-03-01T13:08:38;7.03;;;4.03;;
18726;SDS011;9492;51.888;5.186;2023-03-01T13:11:11;4.67;;;3.90;;
18726;SDS011;9492;51.888;5.186;2023-03-01T13:13:42;7.07;;;3.87;;
18726;SDS011;9492;51.888;5.186;2023-03-01T13:19:05;7.20;;;4.50;;
18726;SDS011;9492;51.888;5.186;2023-03-01T13:21:31;8.63;;;5.40;;
18726;SDS011;9492;51.888;5.186;2023-03-01T13:23:58;6.40;;;4.00;;
18726;SDS011;9492;51.888;5.186;2023-03-01T13:26:24;5.47;;;4.13;;
18726;SDS011;9492;51.888;5.186;2023-03-01T13:28:54;3.90;;;3.10;;
18726;SDS011;9492;51.888;5.186;2023-03-01T13:33:53;4.30;;;3.90;;
18726;SDS011;9492;51.888;5.186;2023-03-01T13:39:26;3.93;;;3.53;;
18726;SDS011;9492;51.888;5.186;2023-03-01T13:41:52;4.13;;;3.40;;
18726;SDS011;9492;51.888;5.186;2023-03-01T13:44:35;4.03;;;3.57;;
18726;SDS011;9492;51.888;5.186;2023-03-01T13:49:33;4.80;;;3.97;;
18726;SDS011;9492;51.888;5.186;2023-03-01T13:52:03;5.80;;;3.97;;
18726;SDS011;9492;51.888;5.186;2023-03-01T13:57:00;5.97;;;4.00;;
18726;SDS011;9492;51.888;5.186;2023-03-01T13:59:29;3.93;;;3.53;;
18726;SDS011;9492;51.888;5.186;2023-03-01T14:01:59;4.07;;;3.60;;
18726;SDS011;9492;51.888;5.186;2023-03-01T14:04:32;3.97;;;3.43;;
18726;SDS011;9492;51.888;5.186;2023-03-01T14:07:21;4.23;;;3.60;;
18726;SDS011;9492;51.888;5.186;2023-03-01T14:09:51;7.00;;;3.90;;
18726;SDS011;9492;51.888;5.186;2023-03-01T14:15:19;5.87;;;3.93;;
18726;SDS011;9492;51.888;5.186;2023-03-01T14:20:21;4.83;;;3.10;;
18726;SDS011;9492;51.888;5.186;2023-03-01T14:22:47;4.77;;;3.73;;
18726;SDS011;9492;51.888;5.186;2023-03-01T14:25:19;5.77;;;4.13;;
18726;SDS011;9492;51.888;5.186;2023-03-01T14:27:48;5.47;;;4.03;;
18726;SDS011;9492;51.888;5.186;2023-03-01T14:30:24;4.90;;;4.07;;
18726;SDS011;9492;51.888;5.186;2023-03-01T14:32:56;4.93;;;3.93;;
18726;SDS011;9492;51.888;5.186;2023-03-01T14:35:29;6.03;;;4.20;;
18726;SDS011;9492;51.888;5.186;2023-03-01T14:37:55;5.37;;;4.10;;
18726;SDS011;9492;51.888;5.186;2023-03-01T14:42:50;4.57;;;3.60;;
18726;SDS011;9492;51.888;5.186;2023-03-01T14:45:17;7.13;;;4.53;;
18726;SDS011;9492;51.888;5.186;2023-03-01T14:47:46;5.20;;;3.60;;
18726;SDS011;9492;51.888;5.186;2023-03-01T14:50:19;6.87;;;4.33;;
18726;SDS011;9492;51.888;5.186;2023-03-01T14:52:46;5.07;;;3.93;;
18726;SDS011;9492;51.888;5.186;2023-03-01T14:55:15;6.13;;;3.83;;
18726;SDS011;9492;51.888;5.186;2023-03-01T15:04:12;8.23;;;4.60;;
18726;SDS011;9492;51.888;5.186;2023-03-01T15:20:06;4.57;;;3.87;;
18726;SDS011;9492;51.888;5.186;2023-03-01T15:22:35;6.27;;;3.77;;
18726;SDS011;9492;51.888;5.186;2023-03-01T15:25:01;4.17;;;3.60;;
18726;SDS011;9492;51.888;5.186;2023-03-01T15:27:27;4.23;;;3.80;;
18726;SDS011;9492;51.888;5.186;2023-03-01T15:30:02;5.80;;;3.60;;
18726;SDS011;9492;51.888;5.186;2023-03-01T15:52:12;4.03;;;3.27;;
18726;SDS011;9492;51.888;5.186;2023-03-01T16:04:21;4.93;;;4.17;;
18726;SDS011;9492;51.888;5.186;2023-03-01T16:13:35;5.87;;;3.93;;
18726;SDS011;9492;51.888;5.186;2023-03-01T16:19:42;11.03;;;7.17;;
18726;SDS011;9492;51.888;5.186;2023-03-01T16:34:48;4.73;;;3.90;;
18726;SDS011;9492;51.888;5.186;2023-03-01T16:43:29;6.03;;;3.67;;
18726;SDS011;9492;51.888;5.186;2023-03-01T16:46:03;3.83;;;3.43;;
18726;SDS011;9492;51.888;5.186;2023-03-01T16:49:09;7.67;;;4.77;;
18726;SDS011;9492;51.888;5.186;2023-03-01T16:54:55;14.87;;;7.03;;
18726;SDS011;9492;51.888;5.186;2023-03-01T17:00:40;39.50;;;19.63;;
18726;SDS011;9492;51.888;5.186;2023-03-01T17:03:18;22.20;;;11.50;;
18726;SDS011;9492;51.888;5.186;2023-03-01T17:08:56;7.23;;;5.07;;
18726;SDS011;9492;51.888;5.186;2023-03-01T17:11:23;7.07;;;4.60;;
18726;SDS011;9492;51.888;5.186;2023-03-01T17:14:03;6.80;;;5.10;;
18726;SDS011;9492;51.888;5.186;2023-03-01T17:16:36;7.87;;;5.77;;
18726;SDS011;9492;51.888;5.186;2023-03-01T17:19:10;15.90;;;8.03;;
18726;SDS011;9492;51.888;5.186;2023-03-01T17:21:50;112.60;;;44.07;;
18726;SDS011;9492;51.888;5.186;2023-03-01T17:24:16;53.90;;;24.60;;
18726;SDS011;9492;51.888;5.186;2023-03-01T17:26:45;20.13;;;11.03;;
18726;SDS011;9492;51.888;5.186;2023-03-01T17:29:14;31.27;;;15.83;;
18726;SDS011;9492;51.888;5.186;2023-03-01T17:31:45;5.03;;;3.70;;
18726;SDS011;9492;51.888;5.186;2023-03-01T17:34:11;6.40;;;3.77;;
18726;SDS011;9492;51.888;5.186;2023-03-01T17:36:55;4.47;;;3.27;;
18726;SDS011;9492;51.888;5.186;2023-03-01T17:39:21;4.23;;;3.40;;
18726;SDS011;9492;51.888;5.186;2023-03-01T17:41:55;4.83;;;3.33;;
18726;SDS011;9492;51.888;5.186;2023-03-01T17:44:45;4.13;;;3.30;;
18726;SDS011;9492;51.888;5.186;2023-03-01T17:47:19;4.60;;;3.37;;
18726;SDS011;9492;51.888;5.186;2023-03-01T17:49:48;5.90;;;3.83;;
18726;SDS011;9492;51.888;5.186;2023-03-01T17:52:19;5.07;;;3.47;;
18726;SDS011;9492;51.888;5.186;2023-03-01T17:54:53;4.67;;;4.00;;
18726;SDS011;9492;51.888;5.186;2023-03-01T17:57:21;5.17;;;3.23;;
18726;SDS011;9492;51.888;5.186;2023-03-01T17:59:49;5.67;;;3.97;;
18726;SDS011;9492;51.888;5.186;2023-03-01T18:02:16;3.93;;;3.30;;
18726;SDS011;9492;51.888;5.186;2023-03-01T18:04:49;6.27;;;4.17;;
18726;SDS011;9492;51.888;5.186;2023-03-01T18:07:25;8.87;;;5.30;;
18726;SDS011;9492;51.888;5.186;2023-03-01T18:09:51;5.87;;;4.20;;
18726;SDS011;9492;51.888;5.186;2023-03-01T18:12:33;4.33;;;3.60;;
18726;SDS011;9492;51.888;5.186;2023-03-01T18:14:59;5.03;;;4.10;;
18726;SDS011;9492;51.888;5.186;2023-03-01T18:17:26;5.13;;;4.63;;
18726;SDS011;9492;51.888;5.186;2023-03-01T18:19:55;6.73;;;5.13;;
18726;SDS011;9492;51.888;5.186;2023-03-01T18:22:21;5.53;;;4.83;;
18726;SDS011;9492;51.888;5.186;2023-03-01T18:24:53;7.80;;;4.70;;
18726;SDS011;9492;51.888;5.186;2023-03-01T18:27:22;6.57;;;4.67;;
18726;SDS011;9492;51.888;5.186;2023-03-01T18:29:59;4.60;;;4.10;;